Maersk Bali — 9V7499 — position and weather

sailwx.info

Track history (hours):
 
Tides and Currents Weather Stations Pressure Air Temp Water Temp Dewpoint Dewpoint Depression Visibility Wind Speed Wind Dir Waves Ship Positions

Maersk Bali

Last reported at 2014-Jul-24 17:31 UTC. Time now 2014-Jul-24 17:46 UTC.
Position N 40°47' E 028°47'.

Length 223 m; draft 9.2 m.

Type: Cargo ship. MMSI: 563102000.

Date/timePositionNaut miles runAvg speedWind from/ knotsBaromVisibWave heightAir tempDewpointWater temp
2014-Jul-24 17:31N 40°47' E 028°47'0 0.2
2014-Jul-24 16:33N 40°47' E 028°47'1 0.6
2014-Jul-24 15:33N 40°47' E 028°47'10 0.5
2014-Jul-23 19:28N 40°56' E 028°41'5 5.0
2014-Jul-23 18:32N 40°52' E 028°40'10 9.6
2014-Jul-23 17:33N 40°46' E 028°49'1111.0
2014-Jul-23 16:33N 40°45' E 029°04'1111.1
2014-Jul-23 15:33N 40°45' E 029°18'1611.4
2014-Jul-23 14:08N 40°45' E 029°40'10 1.0
2014-Jul-23 04:33N 40°44' E 029°27'8 7.8
2014-Jul-23 03:33N 40°43' E 029°17'2 1.6
2014-Jul-23 02:33N 40°43' E 029°15'1010.3
2014-Jul-23 01:33N 40°43' E 029°02'1313.2
2014-Jul-23 00:33N 40°43' E 028°44'2613.0
2014-Jul-22 22:33N 40°43' E 028°10'10012.5
2014-Jul-22 14:33N 40°01' E 026°11'15 7.2
2014-Jul-22 12:32N 39°54' E 025°54'1210.1
2014-Jul-22 11:19N 39°44' E 025°46'5715.1
2014-Jul-22 07:32N 38°52' E 025°14'1615.6
2014-Jul-22 06:29N 38°38' E 025°03'6015.4
2014-Jul-22 02:33N 37°47' E 024°21'1815.7
2014-Jul-22 01:26N 37°33' E 024°09'1515.6
2014-Jul-22 00:28N 37°19' E 024°00'1715.8
2014-Jul-21 23:25N 37°05' E 023°51'1415.9
2014-Jul-21 22:33N 36°52' E 023°43'1715.4
2014-Jul-21 21:25N 36°37' E 023°34'38115.3
2014-Jul-20 20:32N 35°50' E 015°45'1616.4
2014-Jul-20 19:33N 35°49' E 015°25'1616.4
2014-Jul-20 18:33N 35°49' E 015°05'1616.5
2014-Jul-20 17:33N 35°48' E 014°45'1010.1
2014-Jul-20 16:33N 35°49' E 014°32'0 0.0
2014-Jul-20 14:30N 35°49' E 014°32'0 0.0
2014-Jul-20 13:33N 35°49' E 014°32'0 0.0
2014-Jul-20 12:33N 35°49' E 014°32'0 0.0
2014-Jul-20 11:27N 35°49' E 014°32'0 0.0
2014-Jul-20 08:30N 35°49' E 014°32'0 0.0
2014-Jul-20 07:27N 35°49' E 014°32'0 0.0
2014-Jul-20 05:18N 35°49' E 014°32'0 0.0
2014-Jul-20 04:27N 35°49' E 014°32'0 0.0
2014-Jul-20 03:33N 35°49' E 014°32'0 0.0
2014-Jul-20 00:27N 35°49' E 014°32'0 0.0
2014-Jul-19 23:33N 35°49' E 014°32'0 0.0
2014-Jul-19 22:33N 35°49' E 014°32'0 0.2
2014-Jul-19 20:11N 35°49' E 014°32'3 4.4
2014-Jul-19 19:33N 35°47' E 014°34'1514.0
2014-Jul-19 18:27N 35°49' E 014°15'1819.7
2014-Jul-19 17:33N 35°59' E 013°58'2019.9
2014-Jul-19 16:33N 36°11' E 013°37'2020.1
2014-Jul-19 15:33N 36°22' E 013°17'2020.2
2014-Jul-19 14:33N 36°34' E 012°56'1818.3
2014-Jul-19 13:33N 36°45' E 012°38'2017.4
2014-Jul-19 12:25N 36°56' E 012°17'1416.9
2014-Jul-19 11:33N 37°04' E 012°02'31216.4
2014-Jul-18 16:33N 37°19' E 005°31'1616.3
2014-Jul-18 15:32N 37°20' E 005°11'1616.4
2014-Jul-18 14:33N 37°21' E 004°50'1716.5
2014-Jul-18 13:33N 37°21' E 004°30'1716.5
2014-Jul-18 12:33N 37°22' E 004°09'1716.8
2014-Jul-18 11:33N 37°22' E 003°48'1716.9
2014-Jul-18 10:33N 37°23' E 003°26'1616.5
2014-Jul-18 09:34N 37°24' E 003°06'1716.3
2014-Jul-18 08:32N 37°24' E 002°45'1717.2
2014-Jul-18 07:33N 37°19' E 002°24'1817.6
2014-Jul-18 06:33N 37°15' E 002°03'1817.6
2014-Jul-18 05:33N 37°10' E 001°42'1817.8
2014-Jul-18 04:33N 37°06' E 001°20'2220.1
2014-Jul-18 03:29N 37°00' E 000°54'4318.0
2014-Jul-18 01:07N 36°50' E 000°02'1017.8
2014-Jul-18 00:32N 36°47' W 000°10'2117.6
2014-Jul-17 23:20N 36°41' W 000°36'3217.7
2014-Jul-17 21:33N 36°33' W 001°14'1817.6
2014-Jul-17 20:32N 36°29' W 001°35'1917.4
2014-Jul-17 19:26N 36°24' W 001°58'1717.2
2014-Jul-17 18:26N 36°21' W 002°19'14518.1
2014-Jul-17 10:25N 36°03' W 005°18'158 3.9
2014-Jul-15 17:33N 35°57' W 008°34'1615.4
2014-Jul-15 16:31N 35°58' W 008°54'29114.6
2014-Jul-14 20:31N 35°55' W 014°53'  
Track history (hours):
 
Tides and Currents Weather Stations Pressure Air Temp Water Temp Dewpoint Dewpoint Depression Visibility Wind Speed Wind Dir Waves Ship Positions

Maersk Bali

Last reported at 2014-Jul-24 17:31 UTC. Time now 2014-Jul-24 17:46 UTC.
Position N 40°47' E 028°47'.

Length 223 m; draft 9.2 m.

Type: Cargo ship. MMSI: 563102000.

Date/timePositionNaut miles runAvg speedWind from/ knotsBaromVisibWave heightAir tempDewpointWater temp
2014-Jul-24 17:31N 40°47' E 028°47'0 0.2
2014-Jul-24 16:33N 40°47' E 028°47'1 0.6
2014-Jul-24 15:33N 40°47' E 028°47'10 0.5
2014-Jul-23 19:28N 40°56' E 028°41'5 5.0
2014-Jul-23 18:32N 40°52' E 028°40'10 9.6
2014-Jul-23 17:33N 40°46' E 028°49'1111.0
2014-Jul-23 16:33N 40°45' E 029°04'1111.1
2014-Jul-23 15:33N 40°45' E 029°18'1611.4
2014-Jul-23 14:08N 40°45' E 029°40'10 1.0
2014-Jul-23 04:33N 40°44' E 029°27'8 7.8
2014-Jul-23 03:33N 40°43' E 029°17'2 1.6
2014-Jul-23 02:33N 40°43' E 029°15'1010.3
2014-Jul-23 01:33N 40°43' E 029°02'1313.2
2014-Jul-23 00:33N 40°43' E 028°44'2613.0
2014-Jul-22 22:33N 40°43' E 028°10'10012.5
2014-Jul-22 14:33N 40°01' E 026°11'15 7.2
2014-Jul-22 12:32N 39°54' E 025°54'1210.1
2014-Jul-22 11:19N 39°44' E 025°46'5715.1
2014-Jul-22 07:32N 38°52' E 025°14'1615.6
2014-Jul-22 06:29N 38°38' E 025°03'6015.4
2014-Jul-22 02:33N 37°47' E 024°21'1815.7
2014-Jul-22 01:26N 37°33' E 024°09'1515.6
2014-Jul-22 00:28N 37°19' E 024°00'1715.8
2014-Jul-21 23:25N 37°05' E 023°51'1415.9
2014-Jul-21 22:33N 36°52' E 023°43'1715.4
2014-Jul-21 21:25N 36°37' E 023°34'38115.3
2014-Jul-20 20:32N 35°50' E 015°45'1616.4
2014-Jul-20 19:33N 35°49' E 015°25'1616.4
2014-Jul-20 18:33N 35°49' E 015°05'1616.5
2014-Jul-20 17:33N 35°48' E 014°45'1010.1
2014-Jul-20 16:33N 35°49' E 014°32'0 0.0
2014-Jul-20 14:30N 35°49' E 014°32'0 0.0
2014-Jul-20 13:33N 35°49' E 014°32'0 0.0
2014-Jul-20 12:33N 35°49' E 014°32'0 0.0
2014-Jul-20 11:27N 35°49' E 014°32'0 0.0
2014-Jul-20 08:30N 35°49' E 014°32'0 0.0
2014-Jul-20 07:27N 35°49' E 014°32'0 0.0
2014-Jul-20 05:18N 35°49' E 014°32'0 0.0
2014-Jul-20 04:27N 35°49' E 014°32'0 0.0
2014-Jul-20 03:33N 35°49' E 014°32'0 0.0
2014-Jul-20 00:27N 35°49' E 014°32'0 0.0
2014-Jul-19 23:33N 35°49' E 014°32'0 0.0
2014-Jul-19 22:33N 35°49' E 014°32'0 0.2
2014-Jul-19 20:11N 35°49' E 014°32'3 4.4
2014-Jul-19 19:33N 35°47' E 014°34'1514.0
2014-Jul-19 18:27N 35°49' E 014°15'1819.7
2014-Jul-19 17:33N 35°59' E 013°58'2019.9
2014-Jul-19 16:33N 36°11' E 013°37'2020.1
2014-Jul-19 15:33N 36°22' E 013°17'2020.2
2014-Jul-19 14:33N 36°34' E 012°56'1818.3
2014-Jul-19 13:33N 36°45' E 012°38'2017.4
2014-Jul-19 12:25N 36°56' E 012°17'1416.9
2014-Jul-19 11:33N 37°04' E 012°02'31216.4
2014-Jul-18 16:33N 37°19' E 005°31'1616.3
2014-Jul-18 15:32N 37°20' E 005°11'1616.4
2014-Jul-18 14:33N 37°21' E 004°50'1716.5
2014-Jul-18 13:33N 37°21' E 004°30'1716.5
2014-Jul-18 12:33N 37°22' E 004°09'1716.8
2014-Jul-18 11:33N 37°22' E 003°48'1716.9
2014-Jul-18 10:33N 37°23' E 003°26'1616.5
2014-Jul-18 09:34N 37°24' E 003°06'1716.3
2014-Jul-18 08:32N 37°24' E 002°45'1717.2
2014-Jul-18 07:33N 37°19' E 002°24'1817.6
2014-Jul-18 06:33N 37°15' E 002°03'1817.6
2014-Jul-18 05:33N 37°10' E 001°42'1817.8
2014-Jul-18 04:33N 37°06' E 001°20'2220.1
2014-Jul-18 03:29N 37°00' E 000°54'4318.0
2014-Jul-18 01:07N 36°50' E 000°02'1017.8
2014-Jul-18 00:32N 36°47' W 000°10'2117.6
2014-Jul-17 23:20N 36°41' W 000°36'3217.7
2014-Jul-17 21:33N 36°33' W 001°14'1817.6
2014-Jul-17 20:32N 36°29' W 001°35'1917.4
2014-Jul-17 19:26N 36°24' W 001°58'1717.2
2014-Jul-17 18:26N 36°21' W 002°19'14518.1
2014-Jul-17 10:25N 36°03' W 005°18'158 3.9
2014-Jul-15 17:33N 35°57' W 008°34'1615.4
2014-Jul-15 16:31N 35°58' W 008°54'29114.6
2014-Jul-14 20:31N 35°55' W 014°53'  

Dump ship's entire track history